createdAt,value
2023-03-26T00:00:54.514Z,81.30
2023-03-26T00:03:59.107Z,81.21
2023-03-26T00:06:56.028Z,81.23
2023-03-26T00:10:07.698Z,81.32
2023-03-26T00:13:18.964Z,81.46
2023-03-26T00:16:31.014Z,81.49
2023-03-26T00:19:43.256Z,81.67
2023-03-26T00:22:55.429Z,81.93
2023-03-26T00:26:10.974Z,82.23
2023-03-26T00:29:23.117Z,82.57
2023-03-26T00:32:34.282Z,82.89
2023-03-26T00:35:47.316Z,83.23
2023-03-26T00:38:58.518Z,83.54
2023-03-26T00:42:07.433Z,83.77
2023-03-26T00:45:21.514Z,83.95
2023-03-26T00:48:43.883Z,84.09
2023-03-26T00:51:56.903Z,84.23
2023-03-26T00:55:08.579Z,84.28
2023-03-26T00:58:13.485Z,84.43
2023-03-26T01:01:19.118Z,84.44
2023-03-26T01:04:32.172Z,84.63
2023-03-26T01:07:44.911Z,84.84
2023-03-26T01:10:43.849Z,84.98
2023-03-26T01:13:56.304Z,85.22
2023-03-26T01:17:09.323Z,85.44
2023-03-26T01:20:22.332Z,85.65
2023-03-26T01:23:26.549Z,85.85
2023-03-26T01:26:46.919Z,86.13
2023-03-26T01:29:54.825Z,86.40
2023-03-26T01:33:14.106Z,86.72
2023-03-26T01:36:30.661Z,87.08
2023-03-26T01:39:49.349Z,87.38
2023-03-26T01:42:49.359Z,87.58
2023-03-26T01:46:02.172Z,87.89
2023-03-26T01:49:13.520Z,88.18
2023-03-26T01:52:25.456Z,88.28
2023-03-26T01:55:30.236Z,88.46
2023-03-26T01:58:38.311Z,88.55
2023-03-26T02:02:00.085Z,88.76
2023-03-26T02:05:02.025Z,88.70
2023-03-26T02:08:01.912Z,88.53
2023-03-26T02:11:05.267Z,88.74
2023-03-26T02:14:15.416Z,88.83
2023-03-26T02:17:16.935Z,88.73
2023-03-26T02:20:25.950Z,88.85
2023-03-26T02:23:37.493Z,88.70
2023-03-26T02:26:42.072Z,88.58
2023-03-26T02:29:39.987Z,88.48
2023-03-26T02:32:52.516Z,88.41
2023-03-26T02:35:53.719Z,88.49
2023-03-26T02:39:17.226Z,88.56
2023-03-26T02:42:28.038Z,88.50
2023-03-26T02:45:24.492Z,88.57
2023-03-26T02:48:55.860Z,88.54
2023-03-26T02:52:00.050Z,88.56
2023-03-26T02:55:13.477Z,88.65
2023-03-26T02:58:25.553Z,88.77
2023-03-26T03:01:36.369Z,89.21
2023-03-26T03:04:47.375Z,89.35
2023-03-26T03:07:58.656Z,89.47
2023-03-26T03:11:11.235Z,89.23
2023-03-26T03:14:12.909Z,89.15
2023-03-26T03:17:23.983Z,89.22
2023-03-26T03:20:36.181Z,89.53
2023-03-26T03:23:47.644Z,89.35
2023-03-26T03:27:00.333Z,89.06
2023-03-26T03:30:12.799Z,88.91
2023-03-26T03:33:29.777Z,88.77
2023-03-26T03:36:41.091Z,88.59
2023-03-26T03:39:51.843Z,88.41
2023-03-26T03:43:03.212Z,88.41
2023-03-26T03:46:14.461Z,88.44
2023-03-26T03:49:23.835Z,88.51
2023-03-26T03:52:35.221Z,88.65
2023-03-26T03:55:53.140Z,88.73
2023-03-26T03:59:04.796Z,88.81
2023-03-26T04:02:26.625Z,88.93
2023-03-26T04:05:31.164Z,89.33
2023-03-26T04:08:42.127Z,89.54
2023-03-26T04:11:52.879Z,89.82
2023-03-26T04:15:04.416Z,90.03
2023-03-26T04:18:15.194Z,90.34
2023-03-26T04:21:26.568Z,90.49
2023-03-26T04:24:38.495Z,90.28
2023-03-26T04:27:48.243Z,90.40
2023-03-26T04:31:05.835Z,90.15
2023-03-26T04:34:24.730Z,89.92
2023-03-26T04:37:44.445Z,89.94
2023-03-26T04:40:42.518Z,89.94
2023-03-26T04:43:56.924Z,89.86
2023-03-26T04:47:10.440Z,89.95
2023-03-26T04:50:21.263Z,90.02
2023-03-26T04:53:32.476Z,90.13
2023-03-26T04:56:52.630Z,90.28
2023-03-26T05:00:18.640Z,90.40
2023-03-26T05:03:39.417Z,90.40
2023-03-26T05:06:46.482Z,90.51
2023-03-26T05:09:57.892Z,90.79
2023-03-26T05:13:18.094Z,90.81
2023-03-26T05:16:31.968Z,90.71
2023-03-26T05:19:42.794Z,90.62
2023-03-26T05:22:54.373Z,90.71
2023-03-26T05:26:10.450Z,90.73
2023-03-26T05:29:22.910Z,90.56
2023-03-26T05:32:34.013Z,90.45
2023-03-26T05:35:59.603Z,90.25
2023-03-26T05:39:06.244Z,90.02
2023-03-26T05:42:32.974Z,89.93
2023-03-26T05:45:44.187Z,89.89
2023-03-26T05:49:01.186Z,89.94
2023-03-26T05:52:15.347Z,89.98
2023-03-26T05:55:35.383Z,89.92
2023-03-26T05:58:45.179Z,89.95
2023-03-26T06:01:56.586Z,90.17
2023-03-26T06:05:12.548Z,90.28
2023-03-26T06:08:29.918Z,90.35
2023-03-26T06:11:41.087Z,90.38
2023-03-26T06:14:43.102Z,90.47
2023-03-26T06:17:56.930Z,90.62
2023-03-26T06:21:26.134Z,90.70
2023-03-26T06:24:37.163Z,90.51
2023-03-26T06:27:46.193Z,90.68
2023-03-26T06:31:02.794Z,90.11
2023-03-26T06:34:20.245Z,89.53
2023-03-26T06:37:31.390Z,89.36
2023-03-26T06:40:31.415Z,89.29
2023-03-26T06:43:44.827Z,89.20
2023-03-26T06:46:53.899Z,88.93
2023-03-26T06:50:03.560Z,88.69
2023-03-26T06:53:23.240Z,88.71
2023-03-26T06:56:38.430Z,88.79
2023-03-26T06:59:52.102Z,88.97
2023-03-26T07:03:01.430Z,89.10
2023-03-26T07:06:11.099Z,89.33
2023-03-26T07:09:20.243Z,89.01
2023-03-26T07:12:29.241Z,88.86
2023-03-26T07:15:49.955Z,88.88
2023-03-26T07:19:07.199Z,88.41
2023-03-26T07:22:22.487Z,88.27
2023-03-26T07:25:50.195Z,88.02
2023-03-26T07:29:07.868Z,88.02
2023-03-26T07:32:28.700Z,87.87
2023-03-26T07:35:55.154Z,87.92
2023-03-26T07:39:15.207Z,87.89
2023-03-26T07:42:35.701Z,87.72
2023-03-26T07:45:46.491Z,87.75
2023-03-26T07:49:04.785Z,87.68
2023-03-26T07:52:16.527Z,87.65
2023-03-26T07:55:38.652Z,87.32
2023-03-26T07:58:57.644Z,86.95
2023-03-26T08:02:42.497Z,86.70
2023-03-26T08:06:15.963Z,86.40
2023-03-26T08:09:21.225Z,86.20
2023-03-26T08:12:48.641Z,85.90
2023-03-26T08:15:57.146Z,85.80
2023-03-26T08:19:17.465Z,85.79
2023-03-26T08:22:37.355Z,85.51
2023-03-26T08:26:27.458Z,85.12
2023-03-26T08:29:51.014Z,85.38
2023-03-26T08:33:04.861Z,85.41
2023-03-26T08:36:01.414Z,85.32
2023-03-26T08:39:06.375Z,85.39
2023-03-26T08:42:34.335Z,85.29
2023-03-26T08:46:08.003Z,84.90
2023-03-26T08:49:38.280Z,84.85
2023-03-26T08:53:08.334Z,84.84
2023-03-26T08:56:14.624Z,84.95
2023-03-26T08:59:27.717Z,85.03
2023-03-26T09:02:54.482Z,85.18
2023-03-26T09:06:09.618Z,85.30
2023-03-26T09:09:34.765Z,85.37
2023-03-26T09:12:59.911Z,85.39
2023-03-26T09:16:28.196Z,85.15
2023-03-26T09:19:53.465Z,84.58
2023-03-26T09:23:15.120Z,83.89
2023-03-26T09:26:31.471Z,83.54
2023-03-26T09:29:58.475Z,83.42
2023-03-26T09:33:28.260Z,83.32
2023-03-26T09:36:53.753Z,83.44
2023-03-26T09:39:53.581Z,83.85
2023-03-26T09:43:00.798Z,84.34
2023-03-26T09:46:09.822Z,84.50
2023-03-26T09:49:24.659Z,84.70
2023-03-26T09:52:46.417Z,84.80
2023-03-26T09:56:04.846Z,85.01
2023-03-26T09:59:11.201Z,85.01
2023-03-26T10:02:46.298Z,85.08
2023-03-26T10:06:07.018Z,85.48
2023-03-26T10:09:20.764Z,85.68
2023-03-26T10:12:29.741Z,85.56
2023-03-26T10:15:38.578Z,85.53
2023-03-26T10:18:54.596Z,85.76
2023-03-26T10:22:11.703Z,85.97
2023-03-26T10:25:28.692Z,85.74
2023-03-26T10:28:35.785Z,85.64
2023-03-26T10:31:48.203Z,85.53
2023-03-26T10:34:58.287Z,85.48
2023-03-26T10:38:03.780Z,85.23
2023-03-26T10:41:18.110Z,85.23
2023-03-26T10:44:43.720Z,85.37
2023-03-26T10:48:14.094Z,85.67
2023-03-26T10:51:40.863Z,85.84
2023-03-26T10:54:55.082Z,86.41
2023-03-26T10:58:12.306Z,86.69
2023-03-26T11:01:30.084Z,87.26
2023-03-26T11:04:45.394Z,86.90
2023-03-26T11:08:02.237Z,87.16
2023-03-26T11:11:19.469Z,87.48
2023-03-26T11:14:34.881Z,87.79
2023-03-26T11:17:51.801Z,87.64
2023-03-26T11:21:19.854Z,87.75
2023-03-26T11:24:36.250Z,87.67
2023-03-26T11:27:55.228Z,87.60
2023-03-26T11:31:03.597Z,87.57
2023-03-26T11:34:17.414Z,87.30
2023-03-26T11:37:31.341Z,86.88
2023-03-26T11:40:36.215Z,86.48
2023-03-26T11:43:50.109Z,86.27
2023-03-26T11:46:59.050Z,86.23
2023-03-26T11:50:17.068Z,86.50
2023-03-26T11:53:27.687Z,86.31
2023-03-26T11:57:04.819Z,85.93
2023-03-26T12:00:18.515Z,85.42
2023-03-26T12:03:30.514Z,84.68
2023-03-26T12:06:51.488Z,84.36
2023-03-26T12:10:18.169Z,83.81
2023-03-26T12:13:34.876Z,83.28
2023-03-26T12:16:59.242Z,83.25
2023-03-26T12:26:46.774Z,82.59
2023-03-26T12:29:46.586Z,81.92
2023-03-26T12:33:00.300Z,81.64
2023-03-26T12:36:19.532Z,80.92
2023-03-26T12:40:10.698Z,80.24
2023-03-26T12:44:55.725Z,79.68
2023-03-26T12:47:55.272Z,78.93
2023-03-26T12:49:49.494Z,78.34
2023-03-26T12:53:00.442Z,78.07
2023-03-26T12:56:15.717Z,77.49
2023-03-26T12:59:42.724Z,77.28
2023-03-26T13:03:00.326Z,77.12
2023-03-26T13:06:06.930Z,76.79
2023-03-26T13:09:24.027Z,76.05
2023-03-26T13:12:21.473Z,75.49
2023-03-26T13:15:24.969Z,75.05
2023-03-26T13:18:22.065Z,72.71
2023-03-26T13:21:19.634Z,71.80
2023-03-26T13:24:24.825Z,71.01
2023-03-26T13:27:20.054Z,70.47
2023-03-26T13:30:27.340Z,70.18
2023-03-26T13:33:33.896Z,70.10
2023-03-26T13:36:32.096Z,70.30
2023-03-26T13:39:36.247Z,69.44
2023-03-26T13:42:37.880Z,69.00
2023-03-26T13:45:35.235Z,68.05
2023-03-26T13:48:30.344Z,66.94
2023-03-26T13:51:36.382Z,66.58
2023-03-26T13:54:29.882Z,65.95
2023-03-26T13:57:24.949Z,65.28
2023-03-26T14:00:18.540Z,64.13
2023-03-26T14:03:17.754Z,64.23
2023-03-26T14:06:13.443Z,64.21
2023-03-26T14:09:05.204Z,63.14
2023-03-26T14:12:27.050Z,63.21
2023-03-26T14:15:21.138Z,62.20
2023-03-26T14:18:17.196Z,60.50
2023-03-26T14:21:25.079Z,58.63
2023-03-26T14:24:34.559Z,57.78
2023-03-26T14:27:35.222Z,57.34
2023-03-26T14:30:38.524Z,57.42
2023-03-26T14:33:38.648Z,57.99
2023-03-26T14:36:41.976Z,56.81
2023-03-26T14:39:51.489Z,56.20
2023-03-26T14:42:43.646Z,56.61
2023-03-26T14:45:44.654Z,56.39
2023-03-26T14:48:51.426Z,56.82
2023-03-26T14:51:51.505Z,57.56
2023-03-26T14:54:45.888Z,57.80
2023-03-26T14:57:49.718Z,57.66
2023-03-26T15:01:04.351Z,57.98
2023-03-26T15:04:11.752Z,58.51
2023-03-26T15:07:15.884Z,58.48
2023-03-26T15:10:27.402Z,58.67
2023-03-26T15:13:31.096Z,58.26
2023-03-26T15:16:41.656Z,57.75
2023-03-26T15:19:56.687Z,57.74
2023-03-26T15:23:17.553Z,57.60
2023-03-26T15:26:42.583Z,57.56
2023-03-26T15:29:49.452Z,58.03
2023-03-26T15:32:57.589Z,58.12
2023-03-26T15:36:03.714Z,58.36
2023-03-26T15:39:19.704Z,58.64
2023-03-26T15:42:27.342Z,58.38
2023-03-26T15:45:35.482Z,58.40
2023-03-26T15:48:47.615Z,57.64
2023-03-26T15:51:49.431Z,57.69
2023-03-26T15:54:59.575Z,57.88
2023-03-26T15:58:13.833Z,57.94
2023-03-26T16:01:10.903Z,58.33
2023-03-26T16:04:23.153Z,57.91
2023-03-26T16:07:51.119Z,58.26
2023-03-26T16:10:53.834Z,58.78
2023-03-26T16:14:12.653Z,58.92
2023-03-26T16:17:13.150Z,58.75
2023-03-26T16:20:31.332Z,58.87
2023-03-26T16:23:53.929Z,58.72
2023-03-26T16:26:56.323Z,58.76
2023-03-26T16:30:09.755Z,59.29
2023-03-26T16:33:10.537Z,59.41
2023-03-26T16:36:26.190Z,59.70
2023-03-26T16:39:39.113Z,59.30
2023-03-26T16:42:41.037Z,59.10
2023-03-26T16:45:50.513Z,59.16
2023-03-26T16:49:05.224Z,59.49
2023-03-26T16:52:26.855Z,59.53
2023-03-26T16:55:42.914Z,59.51
2023-03-26T16:58:58.942Z,59.55
2023-03-26T17:01:57.466Z,59.41
2023-03-26T17:05:34.358Z,59.69
2023-03-26T17:08:35.527Z,60.14
2023-03-26T17:11:48.906Z,60.37
2023-03-26T17:14:49.455Z,60.53
2023-03-26T17:17:52.937Z,61.25
2023-03-26T17:21:02.413Z,61.28
2023-03-26T17:24:15.168Z,61.17
2023-03-26T17:27:34.308Z,61.32
2023-03-26T17:30:57.182Z,61.61
2023-03-26T17:33:55.819Z,61.44
2023-03-26T17:37:00.135Z,61.33
2023-03-26T17:40:36.020Z,61.54
2023-03-26T17:43:48.544Z,61.67
2023-03-26T17:47:01.882Z,62.13
2023-03-26T17:50:16.288Z,62.15
2023-03-26T17:53:22.509Z,62.38
2023-03-26T17:56:29.013Z,62.58
2023-03-26T17:59:42.212Z,62.63
2023-03-26T18:02:57.526Z,62.90
2023-03-26T18:06:09.788Z,63.08
2023-03-26T18:09:34.654Z,63.20
2023-03-26T18:12:57.926Z,63.20
2023-03-26T18:16:13.998Z,63.32
2023-03-26T18:19:19.618Z,63.39
2023-03-26T18:22:25.054Z,63.51
2023-03-26T18:25:28.583Z,63.82
2023-03-26T18:28:42.815Z,63.94
2023-03-26T18:31:48.178Z,63.97
2023-03-26T18:35:00.948Z,64.17
2023-03-26T18:38:14.564Z,64.31
2023-03-26T18:41:09.860Z,64.53
2023-03-26T18:44:20.209Z,64.83
2023-03-26T18:47:30.618Z,65.03
2023-03-26T18:50:43.132Z,65.16
2023-03-26T18:53:50.547Z,65.43
2023-03-26T18:57:14.920Z,65.64
2023-03-26T19:00:30.451Z,65.77
2023-03-26T19:03:36.913Z,65.89
2023-03-26T19:06:43.835Z,65.99
2023-03-26T19:09:58.186Z,65.91
2023-03-26T19:13:22.144Z,66.12
2023-03-26T19:16:30.012Z,66.27
2023-03-26T19:19:43.468Z,66.51
2023-03-26T19:23:44.433Z,66.48
2023-03-26T19:26:29.802Z,66.64
2023-03-26T19:29:52.956Z,66.81
2023-03-26T19:33:13.505Z,66.71
2023-03-26T19:36:26.528Z,66.44
2023-03-26T19:39:40.567Z,66.23
2023-03-26T19:42:56.391Z,66.30
2023-03-26T19:46:08.708Z,66.27
2023-03-26T19:49:28.563Z,66.03
2023-03-26T19:52:34.281Z,65.53
2023-03-26T19:55:53.632Z,65.03
2023-03-26T19:59:05.329Z,64.71
2023-03-26T20:02:16.206Z,64.39
2023-03-26T20:05:28.979Z,64.36
2023-03-26T20:08:41.131Z,64.52
2023-03-26T20:11:52.723Z,64.61
2023-03-26T20:15:03.416Z,64.76
2023-03-26T20:18:14.159Z,64.80
2023-03-26T20:21:18.545Z,65.03
2023-03-26T20:24:21.607Z,65.16
2023-03-26T20:27:31.463Z,65.34
2023-03-26T20:30:42.402Z,65.65
2023-03-26T20:33:54.314Z,65.82
2023-03-26T20:37:05.876Z,66.26
2023-03-26T20:40:15.818Z,66.62
2023-03-26T20:43:30.295Z,66.99
2023-03-26T20:46:33.515Z,67.48
2023-03-26T20:49:46.255Z,67.84
2023-03-26T20:52:59.974Z,68.22
2023-03-26T20:56:15.578Z,68.61
2023-03-26T20:59:29.807Z,68.90
2023-03-26T21:02:36.309Z,69.10
2023-03-26T21:05:52.537Z,69.44
2023-03-26T21:09:04.306Z,69.66
2023-03-26T21:12:09.829Z,69.74
2023-03-26T21:15:24.404Z,70.10
2023-03-26T21:18:35.604Z,70.11
2023-03-26T21:22:03.171Z,70.19
2023-03-26T21:25:13.304Z,70.67
2023-03-26T21:28:42.560Z,70.53
2023-03-26T21:31:46.999Z,70.66
2023-03-26T21:34:55.746Z,70.98
2023-03-26T21:38:13.258Z,70.79
2023-03-26T21:41:36.385Z,70.76
2023-03-26T21:44:47.815Z,70.99
2023-03-26T21:47:58.446Z,71.34
2023-03-26T21:51:17.734Z,71.69
2023-03-26T21:54:42.048Z,71.99
2023-03-26T21:57:51.197Z,72.22
2023-03-26T22:04:34.066Z,72.52
2023-03-26T22:07:51.964Z,72.57
2023-03-26T22:11:08.493Z,72.54
2023-03-26T22:14:23.647Z,72.45
2023-03-26T22:17:35.947Z,72.43
2023-03-26T22:20:47.347Z,72.66
2023-03-26T22:23:58.299Z,72.81
2023-03-26T22:27:10.159Z,73.16
2023-03-26T22:30:21.980Z,73.51
2023-03-26T22:33:33.243Z,73.81
2023-03-26T22:36:44.318Z,73.73
2023-03-26T22:39:55.534Z,73.99
2023-03-26T22:43:07.823Z,74.08
2023-03-26T22:46:19.167Z,74.14
2023-03-26T22:49:31.561Z,73.98
2023-03-26T22:52:51.124Z,73.73
2023-03-26T22:56:02.290Z,73.59
2023-03-26T22:59:13.582Z,73.64
2023-03-26T23:02:24.310Z,73.88
2023-03-26T23:05:35.206Z,73.91
2023-03-26T23:08:46.350Z,73.89
2023-03-26T23:11:51.927Z,73.96
2023-03-26T23:14:53.777Z,74.34
2023-03-26T23:18:04.917Z,74.65
2023-03-26T23:21:20.031Z,74.93
2023-03-26T23:24:31.303Z,75.08
2023-03-26T23:31:14.633Z,75.54
2023-03-26T23:34:25.379Z,75.68
2023-03-26T23:37:36.253Z,75.70
2023-03-26T23:40:57.300Z,75.73
2023-03-26T23:44:17.394Z,76.04
2023-03-26T23:47:34.472Z,76.38
2023-03-26T23:50:48.353Z,76.64
2023-03-26T23:53:59.928Z,76.45
2023-03-26T23:57:11.480Z,76.47
